sensor_id;sensor_type;location;lat;lon;timestamp;temperature;humidity
3818;DHT22;1924;48.078;11.516;2022-10-16T00:00:21;13.50;99.90
3818;DHT22;1924;48.078;11.516;2022-10-16T00:02:48;13.50;99.90
3818;DHT22;1924;48.078;11.516;2022-10-16T00:05:15;13.50;99.90
3818;DHT22;1924;48.078;11.516;2022-10-16T00:07:42;13.50;99.90
3818;DHT22;1924;48.078;11.516;2022-10-16T00:10:08;13.50;99.90
3818;DHT22;1924;48.078;11.516;2022-10-16T00:12:37;13.50;99.90
3818;DHT22;1924;48.078;11.516;2022-10-16T00:15:04;13.50;99.90
3818;DHT22;1924;48.078;11.516;2022-10-16T00:17:32;13.50;99.90
3818;DHT22;1924;48.078;11.516;2022-10-16T00:19:58;13.50;99.90
3818;DHT22;1924;48.078;11.516;2022-10-16T00:22:25;13.50;99.90
3818;DHT22;1924;48.078;11.516;2022-10-16T00:24:52;13.50;99.90
3818;DHT22;1924;48.078;11.516;2022-10-16T00:27:19;13.40;99.90
3818;DHT22;1924;48.078;11.516;2022-10-16T00:29:51;13.50;99.90
3818;DHT22;1924;48.078;11.516;2022-10-16T00:32:18;13.40;99.90
3818;DHT22;1924;48.078;11.516;2022-10-16T00:34:45;13.50;99.90
3818;DHT22;1924;48.078;11.516;2022-10-16T00:37:11;13.50;99.90
3818;DHT22;1924;48.078;11.516;2022-10-16T00:39:38;13.50;99.90
3818;DHT22;1924;48.078;11.516;2022-10-16T00:42:05;13.50;99.90
3818;DHT22;1924;48.078;11.516;2022-10-16T00:44:45;13.60;99.90
3818;DHT22;1924;48.078;11.516;2022-10-16T00:47:19;13.60;99.90
3818;DHT22;1924;48.078;11.516;2022-10-16T00:49:46;13.50;99.90
3818;DHT22;1924;48.078;11.516;2022-10-16T00:52:14;13.50;99.90
3818;DHT22;1924;48.078;11.516;2022-10-16T00:54:41;13.50;99.90
3818;DHT22;1924;48.078;11.516;2022-10-16T00:57:08;13.50;99.90
3818;DHT22;1924;48.078;11.516;2022-10-16T00:59:37;13.50;99.90
3818;DHT22;1924;48.078;11.516;2022-10-16T01:02:06;13.50;99.90
3818;DHT22;1924;48.078;11.516;2022-10-16T01:04:36;13.50;99.90
3818;DHT22;1924;48.078;11.516;2022-10-16T01:07:09;13.50;99.90
3818;DHT22;1924;48.078;11.516;2022-10-16T01:09:45;13.50;99.90
3818;DHT22;1924;48.078;11.516;2022-10-16T01:12:17;13.50;99.90
3818;DHT22;1924;48.078;11.516;2022-10-16T04:01:26;13.40;99.90
3818;DHT22;1924;48.078;11.516;2022-10-16T04:03:52;13.50;99.90
3818;DHT22;1924;48.078;11.516;2022-10-16T04:06:19;13.50;99.90
3818;DHT22;1924;48.078;11.516;2022-10-16T04:08:46;13.50;99.90
3818;DHT22;1924;48.078;11.516;2022-10-16T04:11:13;13.50;99.90
3818;DHT22;1924;48.078;11.516;2022-10-16T04:13:39;13.50;99.90
3818;DHT22;1924;48.078;11.516;2022-10-16T04:16:07;13.50;99.90
3818;DHT22;1924;48.078;11.516;2022-10-16T04:18:35;13.50;99.90
3818;DHT22;1924;48.078;11.516;2022-10-16T04:21:03;13.50;99.90
3818;DHT22;1924;48.078;11.516;2022-10-16T04:23:30;13.50;99.90
3818;DHT22;1924;48.078;11.516;2022-10-16T04:25:57;13.60;99.90
3818;DHT22;1924;48.078;11.516;2022-10-16T04:28:23;13.60;99.90
3818;DHT22;1924;48.078;11.516;2022-10-16T04:30:50;13.60;99.90
3818;DHT22;1924;48.078;11.516;2022-10-16T04:33:17;13.60;99.90
3818;DHT22;1924;48.078;11.516;2022-10-16T04:35:45;13.60;99.90
3818;DHT22;1924;48.078;11.516;2022-10-16T04:38:12;13.50;99.90
3818;DHT22;1924;48.078;11.516;2022-10-16T04:40:38;13.50;99.90
3818;DHT22;1924;48.078;11.516;2022-10-16T04:43:05;13.50;99.90
3818;DHT22;1924;48.078;11.516;2022-10-16T04:45:32;13.50;99.90
3818;DHT22;1924;48.078;11.516;2022-10-16T04:48:00;13.50;99.90
3818;DHT22;1924;48.078;11.516;2022-10-16T04:50:26;13.50;99.90
3818;DHT22;1924;48.078;11.516;2022-10-16T04:52:54;13.50;99.90
3818;DHT22;1924;48.078;11.516;2022-10-16T04:55:21;13.50;99.90
3818;DHT22;1924;48.078;11.516;2022-10-16T04:57:48;13.50;99.90
3818;DHT22;1924;48.078;11.516;2022-10-16T05:00:15;13.50;99.90
3818;DHT22;1924;48.078;11.516;2022-10-16T05:02:42;13.60;99.90
3818;DHT22;1924;48.078;11.516;2022-10-16T05:05:09;13.60;99.90
3818;DHT22;1924;48.078;11.516;2022-10-16T05:07:35;13.60;99.90
3818;DHT22;1924;48.078;11.516;2022-10-16T05:10:04;13.50;99.90
3818;DHT22;1924;48.078;11.516;2022-10-16T05:12:32;13.50;99.90
3818;DHT22;1924;48.078;11.516;2022-10-16T05:14:58;13.60;99.90
3818;DHT22;1924;48.078;11.516;2022-10-16T05:17:25;13.60;99.90
3818;DHT22;1924;48.078;11.516;2022-10-16T05:19:52;13.60;99.90
3818;DHT22;1924;48.078;11.516;2022-10-16T05:22:19;13.60;99.90
3818;DHT22;1924;48.078;11.516;2022-10-16T05:24:46;13.60;99.90
3818;DHT22;1924;48.078;11.516;2022-10-16T05:27:14;13.60;99.90
3818;DHT22;1924;48.078;11.516;2022-10-16T05:29:44;13.60;99.90
3818;DHT22;1924;48.078;11.516;2022-10-16T05:32:12;13.60;99.90
3818;DHT22;1924;48.078;11.516;2022-10-16T05:34:38;13.60;99.90
3818;DHT22;1924;48.078;11.516;2022-10-16T05:37:05;13.60;99.90
3818;DHT22;1924;48.078;11.516;2022-10-16T05:39:32;13.50;99.90
3818;DHT22;1924;48.078;11.516;2022-10-16T05:41:59;13.50;99.90
3818;DHT22;1924;48.078;11.516;2022-10-16T05:44:27;13.50;99.90
3818;DHT22;1924;48.078;11.516;2022-10-16T05:46:54;13.50;99.90
3818;DHT22;1924;48.078;11.516;2022-10-16T05:49:21;13.50;99.90
3818;DHT22;1924;48.078;11.516;2022-10-16T05:51:48;13.50;99.90
3818;DHT22;1924;48.078;11.516;2022-10-16T05:54:14;13.50;99.90
3818;DHT22;1924;48.078;11.516;2022-10-16T05:56:41;13.50;99.90
3818;DHT22;1924;48.078;11.516;2022-10-16T05:59:08;13.40;99.90
3818;DHT22;1924;48.078;11.516;2022-10-16T06:01:36;13.50;99.90
3818;DHT22;1924;48.078;11.516;2022-10-16T06:04:03;13.50;99.90
3818;DHT22;1924;48.078;11.516;2022-10-16T06:06:30;13.50;99.90
3818;DHT22;1924;48.078;11.516;2022-10-16T06:08:57;13.50;99.90
3818;DHT22;1924;48.078;11.516;2022-10-16T06:11:28;13.50;99.90
3818;DHT22;1924;48.078;11.516;2022-10-16T06:13:59;13.50;99.90
3818;DHT22;1924;48.078;11.516;2022-10-16T06:16:28;13.50;99.90
3818;DHT22;1924;48.078;11.516;2022-10-16T06:18:56;13.60;99.90
3818;DHT22;1924;48.078;11.516;2022-10-16T06:21:25;13.60;99.90
3818;DHT22;1924;48.078;11.516;2022-10-16T06:23:53;13.60;99.90
3818;DHT22;1924;48.078;11.516;2022-10-16T06:26:22;13.60;99.90
3818;DHT22;1924;48.078;11.516;2022-10-16T06:28:49;13.70;99.90
3818;DHT22;1924;48.078;11.516;2022-10-16T06:31:17;13.70;99.90
3818;DHT22;1924;48.078;11.516;2022-10-16T06:33:44;13.70;99.90
3818;DHT22;1924;48.078;11.516;2022-10-16T06:36:15;13.70;99.90
3818;DHT22;1924;48.078;11.516;2022-10-16T06:38:42;13.70;99.90
3818;DHT22;1924;48.078;11.516;2022-10-16T06:41:12;13.70;99.90
3818;DHT22;1924;48.078;11.516;2022-10-16T06:43:39;13.70;99.90
3818;DHT22;1924;48.078;11.516;2022-10-16T06:46:07;13.80;99.90
3818;DHT22;1924;48.078;11.516;2022-10-16T06:48:34;13.80;99.90
3818;DHT22;1924;48.078;11.516;2022-10-16T06:51:03;13.80;99.90
3818;DHT22;1924;48.078;11.516;2022-10-16T06:53:33;13.80;99.90
3818;DHT22;1924;48.078;11.516;2022-10-16T06:56:07;13.80;99.90
3818;DHT22;1924;48.078;11.516;2022-10-16T06:58:34;13.80;99.90
3818;DHT22;1924;48.078;11.516;2022-10-16T07:01:01;13.80;99.90
3818;DHT22;1924;48.078;11.516;2022-10-16T07:03:27;13.80;99.90
3818;DHT22;1924;48.078;11.516;2022-10-16T07:05:54;13.80;99.90
3818;DHT22;1924;48.078;11.516;2022-10-16T07:08:21;13.80;99.90
3818;DHT22;1924;48.078;11.516;2022-10-16T07:10:58;13.80;99.90
3818;DHT22;1924;48.078;11.516;2022-10-16T07:13:25;13.80;99.90
3818;DHT22;1924;48.078;11.516;2022-10-16T07:15:51;13.90;99.90
3818;DHT22;1924;48.078;11.516;2022-10-16T07:18:18;13.90;99.90
3818;DHT22;1924;48.078;11.516;2022-10-16T07:20:45;13.90;99.90
3818;DHT22;1924;48.078;11.516;2022-10-16T07:23:12;14.00;99.90
3818;DHT22;1924;48.078;11.516;2022-10-16T07:25:38;14.10;99.90
3818;DHT22;1924;48.078;11.516;2022-10-16T07:28:06;14.20;99.90
3818;DHT22;1924;48.078;11.516;2022-10-16T07:30:35;14.30;99.90
3818;DHT22;1924;48.078;11.516;2022-10-16T07:33:03;14.40;99.90
3818;DHT22;1924;48.078;11.516;2022-10-16T07:35:30;14.50;99.90
3818;DHT22;1924;48.078;11.516;2022-10-16T07:37:56;14.60;99.90
3818;DHT22;1924;48.078;11.516;2022-10-16T07:40:23;14.70;99.90
3818;DHT22;1924;48.078;11.516;2022-10-16T07:42:52;14.80;99.90
3818;DHT22;1924;48.078;11.516;2022-10-16T07:45:20;14.90;99.90
3818;DHT22;1924;48.078;11.516;2022-10-16T07:47:47;15.00;99.90
3818;DHT22;1924;48.078;11.516;2022-10-16T07:50:14;15.00;99.90
3818;DHT22;1924;48.078;11.516;2022-10-16T07:52:40;15.00;99.90
3818;DHT22;1924;48.078;11.516;2022-10-16T07:55:08;15.10;99.90
3818;DHT22;1924;48.078;11.516;2022-10-16T07:57:35;15.10;99.90
3818;DHT22;1924;48.078;11.516;2022-10-16T08:00:03;15.20;99.90
3818;DHT22;1924;48.078;11.516;2022-10-16T08:02:31;15.30;99.90
3818;DHT22;1924;48.078;11.516;2022-10-16T08:04:58;15.30;99.90
3818;DHT22;1924;48.078;11.516;2022-10-16T08:07:24;15.30;99.90
3818;DHT22;1924;48.078;11.516;2022-10-16T08:09:51;15.40;99.90
3818;DHT22;1924;48.078;11.516;2022-10-16T08:12:18;15.40;99.90
3818;DHT22;1924;48.078;11.516;2022-10-16T08:14:45;15.50;99.90
3818;DHT22;1924;48.078;11.516;2022-10-16T08:17:14;15.50;99.90
3818;DHT22;1924;48.078;11.516;2022-10-16T08:19:44;15.50;99.90
3818;DHT22;1924;48.078;11.516;2022-10-16T08:22:11;15.60;99.90
3818;DHT22;1924;48.078;11.516;2022-10-16T08:24:37;15.60;99.90
3818;DHT22;1924;48.078;11.516;2022-10-16T08:27:04;15.70;99.90
3818;DHT22;1924;48.078;11.516;2022-10-16T08:29:31;15.70;99.90
3818;DHT22;1924;48.078;11.516;2022-10-16T08:31:58;15.80;99.90
3818;DHT22;1924;48.078;11.516;2022-10-16T08:34:25;15.80;99.90
3818;DHT22;1924;48.078;11.516;2022-10-16T08:36:54;15.80;99.90
3818;DHT22;1924;48.078;11.516;2022-10-16T08:39:21;15.90;99.90
3818;DHT22;1924;48.078;11.516;2022-10-16T08:42:11;15.90;99.90
3818;DHT22;1924;48.078;11.516;2022-10-16T08:45:08;16.00;99.90
3818;DHT22;1924;48.078;11.516;2022-10-16T08:47:49;16.10;99.90
3818;DHT22;1924;48.078;11.516;2022-10-16T08:50:21;16.20;99.90
3818;DHT22;1924;48.078;11.516;2022-10-16T08:52:51;16.20;99.90
3818;DHT22;1924;48.078;11.516;2022-10-16T08:55:37;16.30;99.90
3818;DHT22;1924;48.078;11.516;2022-10-16T08:58:11;16.40;99.90
3818;DHT22;1924;48.078;11.516;2022-10-16T09:00:38;16.50;99.90
3818;DHT22;1924;48.078;11.516;2022-10-16T09:03:14;16.50;99.90
3818;DHT22;1924;48.078;11.516;2022-10-16T09:06:08;16.60;99.90
3818;DHT22;1924;48.078;11.516;2022-10-16T09:08:42;16.60;99.90
3818;DHT22;1924;48.078;11.516;2022-10-16T09:11:15;16.60;99.90
3818;DHT22;1924;48.078;11.516;2022-10-16T09:13:48;16.70;99.90
3818;DHT22;1924;48.078;11.516;2022-10-16T09:16:21;16.80;99.90
3818;DHT22;1924;48.078;11.516;2022-10-16T09:18:55;16.90;99.90
3818;DHT22;1924;48.078;11.516;2022-10-16T09:21:27;16.90;99.90
3818;DHT22;1924;48.078;11.516;2022-10-16T09:23:58;17.10;99.90
3818;DHT22;1924;48.078;11.516;2022-10-16T09:26:26;17.10;99.90
3818;DHT22;1924;48.078;11.516;2022-10-16T09:28:53;17.20;99.90
3818;DHT22;1924;48.078;11.516;2022-10-16T09:31:22;17.30;99.90
3818;DHT22;1924;48.078;11.516;2022-10-16T09:33:53;17.40;99.90
3818;DHT22;1924;48.078;11.516;2022-10-16T09:36:23;17.50;99.90
3818;DHT22;1924;48.078;11.516;2022-10-16T09:39:03;17.50;99.90
3818;DHT22;1924;48.078;11.516;2022-10-16T09:41:33;17.50;99.90
3818;DHT22;1924;48.078;11.516;2022-10-16T09:44:01;17.70;99.90
3818;DHT22;1924;48.078;11.516;2022-10-16T09:46:30;17.70;99.90
3818;DHT22;1924;48.078;11.516;2022-10-16T09:48:59;17.80;99.90
3818;DHT22;1924;48.078;11.516;2022-10-16T09:51:28;17.90;99.90
3818;DHT22;1924;48.078;11.516;2022-10-16T09:53:57;18.10;99.90
3818;DHT22;1924;48.078;11.516;2022-10-16T09:56:27;18.20;99.90
3818;DHT22;1924;48.078;11.516;2022-10-16T09:58:56;18.30;99.90
3818;DHT22;1924;48.078;11.516;2022-10-16T10:01:29;18.40;99.90
3818;DHT22;1924;48.078;11.516;2022-10-16T10:03:58;18.60;99.90
3818;DHT22;1924;48.078;11.516;2022-10-16T10:06:31;18.80;99.90
3818;DHT22;1924;48.078;11.516;2022-10-16T10:09:03;18.90;99.90
3818;DHT22;1924;48.078;11.516;2022-10-16T10:11:43;19.10;99.90
3818;DHT22;1924;48.078;11.516;2022-10-16T10:14:21;19.20;99.90
3818;DHT22;1924;48.078;11.516;2022-10-16T10:16:48;19.50;99.90
3818;DHT22;1924;48.078;11.516;2022-10-16T10:19:16;19.70;99.90
3818;DHT22;1924;48.078;11.516;2022-10-16T10:21:43;19.90;99.90
3818;DHT22;1924;48.078;11.516;2022-10-16T10:24:12;20.00;99.90
3818;DHT22;1924;48.078;11.516;2022-10-16T10:26:44;20.20;99.90
3818;DHT22;1924;48.078;11.516;2022-10-16T10:29:16;20.30;99.90
3818;DHT22;1924;48.078;11.516;2022-10-16T10:31:48;20.30;99.90
3818;DHT22;1924;48.078;11.516;2022-10-16T10:34:27;20.50;99.90
3818;DHT22;1924;48.078;11.516;2022-10-16T10:37:02;20.60;99.90
3818;DHT22;1924;48.078;11.516;2022-10-16T10:39:35;20.80;99.90
3818;DHT22;1924;48.078;11.516;2022-10-16T10:42:16;20.90;99.90
3818;DHT22;1924;48.078;11.516;2022-10-16T10:44:57;21.10;99.90
3818;DHT22;1924;48.078;11.516;2022-10-16T10:47:34;21.10;99.90
3818;DHT22;1924;48.078;11.516;2022-10-16T10:50:10;21.20;99.90
3818;DHT22;1924;48.078;11.516;2022-10-16T10:52:48;21.20;99.90
3818;DHT22;1924;48.078;11.516;2022-10-16T10:55:25;21.10;99.90
3818;DHT22;1924;48.078;11.516;2022-10-16T11:00:56;21.00;99.90
3818;DHT22;1924;48.078;11.516;2022-10-16T11:03:35;21.00;99.90
3818;DHT22;1924;48.078;11.516;2022-10-16T11:06:12;20.90;99.90
3818;DHT22;1924;48.078;11.516;2022-10-16T11:08:46;20.80;99.90
3818;DHT22;1924;48.078;11.516;2022-10-16T11:11:18;20.80;99.90
3818;DHT22;1924;48.078;11.516;2022-10-16T11:13:55;20.80;99.90
3818;DHT22;1924;48.078;11.516;2022-10-16T11:16:27;20.70;99.90
3818;DHT22;1924;48.078;11.516;2022-10-16T11:18:59;20.70;99.90
3818;DHT22;1924;48.078;11.516;2022-10-16T11:21:31;20.60;99.90
3818;DHT22;1924;48.078;11.516;2022-10-16T11:24:06;20.50;99.90
3818;DHT22;1924;48.078;11.516;2022-10-16T11:26:40;20.50;99.90
3818;DHT22;1924;48.078;11.516;2022-10-16T11:29:15;20.40;99.90
3818;DHT22;1924;48.078;11.516;2022-10-16T11:31:47;20.40;99.90
3818;DHT22;1924;48.078;11.516;2022-10-16T11:34:21;20.40;99.90
3818;DHT22;1924;48.078;11.516;2022-10-16T11:36:53;20.50;98.90
3818;DHT22;1924;48.078;11.516;2022-10-16T11:39:21;20.70;98.90
3818;DHT22;1924;48.078;11.516;2022-10-16T11:41:52;20.90;98.20
3818;DHT22;1924;48.078;11.516;2022-10-16T11:44:44;21.00;99.90
3818;DHT22;1924;48.078;11.516;2022-10-16T11:47:27;21.10;97.20
3818;DHT22;1924;48.078;11.516;2022-10-16T11:49:59;21.20;98.90
3818;DHT22;1924;48.078;11.516;2022-10-16T11:52:33;21.30;96.10
3818;DHT22;1924;48.078;11.516;2022-10-16T11:55:05;21.50;97.30
3818;DHT22;1924;48.078;11.516;2022-10-16T11:57:41;21.70;95.50
3818;DHT22;1924;48.078;11.516;2022-10-16T12:00:20;21.80;96.80
3818;DHT22;1924;48.078;11.516;2022-10-16T12:02:54;21.90;94.50
3818;DHT22;1924;48.078;11.516;2022-10-16T12:05:28;22.00;94.40
3818;DHT22;1924;48.078;11.516;2022-10-16T12:08:06;22.00;93.80
3818;DHT22;1924;48.078;11.516;2022-10-16T12:10:35;21.90;95.40
3818;DHT22;1924;48.078;11.516;2022-10-16T12:13:03;21.80;95.30
3818;DHT22;1924;48.078;11.516;2022-10-16T12:15:32;21.80;96.00
3818;DHT22;1924;48.078;11.516;2022-10-16T12:18:00;21.70;97.10
3818;DHT22;1924;48.078;11.516;2022-10-16T12:20:29;21.70;93.30
3818;DHT22;1924;48.078;11.516;2022-10-16T12:22:59;21.80;93.60
3818;DHT22;1924;48.078;11.516;2022-10-16T12:25:29;21.80;94.40
3818;DHT22;1924;48.078;11.516;2022-10-16T12:28:04;21.90;94.10
3818;DHT22;1924;48.078;11.516;2022-10-16T12:30:35;21.90;93.20
3818;DHT22;1924;48.078;11.516;2022-10-16T12:33:04;22.10;93.90
3818;DHT22;1924;48.078;11.516;2022-10-16T12:35:33;22.30;94.00
3818;DHT22;1924;48.078;11.516;2022-10-16T12:38:17;22.40;94.00
3818;DHT22;1924;48.078;11.516;2022-10-16T12:40:45;22.50;92.40
3818;DHT22;1924;48.078;11.516;2022-10-16T12:43:35;22.50;91.10
3818;DHT22;1924;48.078;11.516;2022-10-16T12:46:06;22.30;90.70
3818;DHT22;1924;48.078;11.516;2022-10-16T12:48:47;22.40;92.80
3818;DHT22;1924;48.078;11.516;2022-10-16T12:51:24;22.40;91.70
3818;DHT22;1924;48.078;11.516;2022-10-16T12:54:01;22.50;93.30
3818;DHT22;1924;48.078;11.516;2022-10-16T12:56:37;22.60;92.30
3818;DHT22;1924;48.078;11.516;2022-10-16T12:59:13;22.60;94.70
3818;DHT22;1924;48.078;11.516;2022-10-16T13:01:56;22.70;93.20
3818;DHT22;1924;48.078;11.516;2022-10-16T13:05:00;22.70;94.70
3818;DHT22;1924;48.078;11.516;2022-10-16T13:07:41;22.80;93.00
3818;DHT22;1924;48.078;11.516;2022-10-16T13:10:15;22.60;90.60
3818;DHT22;1924;48.078;11.516;2022-10-16T13:13:12;22.60;89.60
3818;DHT22;1924;48.078;11.516;2022-10-16T13:16:09;22.50;91.20
3818;DHT22;1924;48.078;11.516;2022-10-16T13:18:51;22.30;90.00
3818;DHT22;1924;48.078;11.516;2022-10-16T13:21:32;22.30;92.40
3818;DHT22;1924;48.078;11.516;2022-10-16T13:24:06;22.20;92.90
3818;DHT22;1924;48.078;11.516;2022-10-16T13:26:42;22.10;91.20
3818;DHT22;1924;48.078;11.516;2022-10-16T13:29:10;21.90;92.40
3818;DHT22;1924;48.078;11.516;2022-10-16T13:31:39;21.80;88.60
3818;DHT22;1924;48.078;11.516;2022-10-16T13:34:13;21.80;90.40
3818;DHT22;1924;48.078;11.516;2022-10-16T13:36:44;21.60;91.20
3818;DHT22;1924;48.078;11.516;2022-10-16T13:39:14;21.40;91.50
3818;DHT22;1924;48.078;11.516;2022-10-16T13:41:43;21.30;91.70
3818;DHT22;1924;48.078;11.516;2022-10-16T13:44:15;21.20;91.90
3818;DHT22;1924;48.078;11.516;2022-10-16T13:46:43;21.10;93.00
3818;DHT22;1924;48.078;11.516;2022-10-16T13:49:15;21.00;93.50
3818;DHT22;1924;48.078;11.516;2022-10-16T13:51:54;20.90;93.30
3818;DHT22;1924;48.078;11.516;2022-10-16T13:54:20;20.90;92.10
3818;DHT22;1924;48.078;11.516;2022-10-16T13:56:47;20.80;92.80
3818;DHT22;1924;48.078;11.516;2022-10-16T13:59:23;20.70;92.90
3818;DHT22;1924;48.078;11.516;2022-10-16T14:01:52;20.60;92.50
3818;DHT22;1924;48.078;11.516;2022-10-16T14:04:21;20.60;93.50
3818;DHT22;1924;48.078;11.516;2022-10-16T14:06:50;20.50;93.30
3818;DHT22;1924;48.078;11.516;2022-10-16T14:09:22;20.50;91.50
3818;DHT22;1924;48.078;11.516;2022-10-16T14:11:54;20.60;91.30
3818;DHT22;1924;48.078;11.516;2022-10-16T14:14:22;20.70;92.10
3818;DHT22;1924;48.078;11.516;2022-10-16T14:16:49;20.60;91.90
3818;DHT22;1924;48.078;11.516;2022-10-16T14:19:22;20.60;91.20
3818;DHT22;1924;48.078;11.516;2022-10-16T14:21:50;20.60;91.10
3818;DHT22;1924;48.078;11.516;2022-10-16T14:24:26;20.50;91.80
3818;DHT22;1924;48.078;11.516;2022-10-16T14:26:53;20.50;91.70
3818;DHT22;1924;48.078;11.516;2022-10-16T14:29:23;20.50;91.60
3818;DHT22;1924;48.078;11.516;2022-10-16T14:31:57;20.50;91.50
3818;DHT22;1924;48.078;11.516;2022-10-16T14:34:29;20.50;91.40
3818;DHT22;1924;48.078;11.516;2022-10-16T14:36:58;20.40;91.60
3818;DHT22;1924;48.078;11.516;2022-10-16T14:39:26;20.50;91.30
3818;DHT22;1924;48.078;11.516;2022-10-16T14:41:56;20.40;91.40
3818;DHT22;1924;48.078;11.516;2022-10-16T14:44:28;20.30;91.70
3818;DHT22;1924;48.078;11.516;2022-10-16T14:46:56;20.20;92.40
3818;DHT22;1924;48.078;11.516;2022-10-16T14:49:26;20.20;92.30
3818;DHT22;1924;48.078;11.516;2022-10-16T14:51:53;20.20;93.20
3818;DHT22;1924;48.078;11.516;2022-10-16T14:54:20;20.10;94.80
3818;DHT22;1924;48.078;11.516;2022-10-16T14:56:50;20.00;94.20
3818;DHT22;1924;48.078;11.516;2022-10-16T14:59:23;19.90;94.30
3818;DHT22;1924;48.078;11.516;2022-10-16T15:01:52;19.80;94.70
3818;DHT22;1924;48.078;11.516;2022-10-16T15:04:18;19.80;95.20
3818;DHT22;1924;48.078;11.516;2022-10-16T15:06:47;19.70;95.20
3818;DHT22;1924;48.078;11.516;2022-10-16T15:09:13;19.60;95.20
3818;DHT22;1924;48.078;11.516;2022-10-16T15:11:41;19.60;95.60
3818;DHT22;1924;48.078;11.516;2022-10-16T15:14:11;19.60;95.80
3818;DHT22;1924;48.078;11.516;2022-10-16T15:16:37;19.50;96.40
3818;DHT22;1924;48.078;11.516;2022-10-16T15:19:04;19.40;96.30
3818;DHT22;1924;48.078;11.516;2022-10-16T15:21:32;19.40;96.60
3818;DHT22;1924;48.078;11.516;2022-10-16T15:24:00;19.30;97.60
3818;DHT22;1924;48.078;11.516;2022-10-16T15:26:29;19.30;98.20
3818;DHT22;1924;48.078;11.516;2022-10-16T15:28:56;19.20;98.40
3818;DHT22;1924;48.078;11.516;2022-10-16T15:31:23;19.20;99.10
3818;DHT22;1924;48.078;11.516;2022-10-16T15:33:51;19.20;99.60
3818;DHT22;1924;48.078;11.516;2022-10-16T15:36:25;19.10;99.90
3818;DHT22;1924;48.078;11.516;2022-10-16T15:38:52;19.10;99.90
3818;DHT22;1924;48.078;11.516;2022-10-16T15:41:20;19.00;99.90
3818;DHT22;1924;48.078;11.516;2022-10-16T15:43:48;18.90;99.90
3818;DHT22;1924;48.078;11.516;2022-10-16T15:46:18;18.90;99.90
3818;DHT22;1924;48.078;11.516;2022-10-16T15:48:45;18.90;99.90
3818;DHT22;1924;48.078;11.516;2022-10-16T15:51:12;18.80;99.90
3818;DHT22;1924;48.078;11.516;2022-10-16T15:53:39;18.80;99.90
3818;DHT22;1924;48.078;11.516;2022-10-16T15:56:07;18.70;99.90
3818;DHT22;1924;48.078;11.516;2022-10-16T15:58:35;18.70;99.90
3818;DHT22;1924;48.078;11.516;2022-10-16T16:01:03;18.60;99.90
3818;DHT22;1924;48.078;11.516;2022-10-16T16:03:30;18.60;99.90
3818;DHT22;1924;48.078;11.516;2022-10-16T16:05:58;18.60;99.90
3818;DHT22;1924;48.078;11.516;2022-10-16T16:08:30;18.50;99.90
3818;DHT22;1924;48.078;11.516;2022-10-16T16:10:58;18.50;99.90
3818;DHT22;1924;48.078;11.516;2022-10-16T16:13:25;18.40;99.90
3818;DHT22;1924;48.078;11.516;2022-10-16T16:15:53;18.40;99.90
3818;DHT22;1924;48.078;11.516;2022-10-16T16:18:20;18.30;99.90
3818;DHT22;1924;48.078;11.516;2022-10-16T16:20:48;18.30;99.90
3818;DHT22;1924;48.078;11.516;2022-10-16T16:23:14;18.20;99.90
3818;DHT22;1924;48.078;11.516;2022-10-16T16:25:41;18.20;99.90
3818;DHT22;1924;48.078;11.516;2022-10-16T16:28:08;18.10;99.90
3818;DHT22;1924;48.078;11.516;2022-10-16T16:30:36;18.10;99.90
3818;DHT22;1924;48.078;11.516;2022-10-16T16:33:04;18.00;99.90
3818;DHT22;1924;48.078;11.516;2022-10-16T16:35:31;18.00;99.90
3818;DHT22;1924;48.078;11.516;2022-10-16T16:37:59;17.90;99.90
3818;DHT22;1924;48.078;11.516;2022-10-16T16:40:26;17.90;99.90
3818;DHT22;1924;48.078;11.516;2022-10-16T16:42:53;17.80;99.90
3818;DHT22;1924;48.078;11.516;2022-10-16T16:45:20;17.70;99.90
3818;DHT22;1924;48.078;11.516;2022-10-16T16:47:48;17.70;99.90
3818;DHT22;1924;48.078;11.516;2022-10-16T16:50:16;17.70;99.90
3818;DHT22;1924;48.078;11.516;2022-10-16T16:52:42;17.60;99.90
3818;DHT22;1924;48.078;11.516;2022-10-16T16:55:11;17.50;99.90
3818;DHT22;1924;48.078;11.516;2022-10-16T16:57:38;17.50;99.90
3818;DHT22;1924;48.078;11.516;2022-10-16T17:00:06;17.50;99.90
3818;DHT22;1924;48.078;11.516;2022-10-16T17:02:32;17.50;99.90
3818;DHT22;1924;48.078;11.516;2022-10-16T17:04:59;17.40;99.90
3818;DHT22;1924;48.078;11.516;2022-10-16T17:07:31;17.30;99.90
3818;DHT22;1924;48.078;11.516;2022-10-16T17:09:58;17.30;99.90
3818;DHT22;1924;48.078;11.516;2022-10-16T17:12:24;17.30;99.90
3818;DHT22;1924;48.078;11.516;2022-10-16T17:14:51;17.30;99.90
3818;DHT22;1924;48.078;11.516;2022-10-16T17:17:18;17.20;99.90
3818;DHT22;1924;48.078;11.516;2022-10-16T17:19:45;17.20;99.90
3818;DHT22;1924;48.078;11.516;2022-10-16T17:22:12;17.20;99.90
3818;DHT22;1924;48.078;11.516;2022-10-16T17:24:40;17.20;99.90
3818;DHT22;1924;48.078;11.516;2022-10-16T17:27:06;17.20;99.90
3818;DHT22;1924;48.078;11.516;2022-10-16T17:29:34;17.10;99.90
3818;DHT22;1924;48.078;11.516;2022-10-16T17:32:01;17.10;99.90
3818;DHT22;1924;48.078;11.516;2022-10-16T17:34:28;17.10;99.90
3818;DHT22;1924;48.078;11.516;2022-10-16T17:36:54;17.10;99.90
3818;DHT22;1924;48.078;11.516;2022-10-16T17:39:21;17.00;99.90
3818;DHT22;1924;48.078;11.516;2022-10-16T17:41:49;17.00;99.90
3818;DHT22;1924;48.078;11.516;2022-10-16T17:44:16;16.90;99.90
3818;DHT22;1924;48.078;11.516;2022-10-16T17:46:47;16.90;99.90
3818;DHT22;1924;48.078;11.516;2022-10-16T17:49:14;16.90;99.90
3818;DHT22;1924;48.078;11.516;2022-10-16T17:51:41;16.90;99.90
3818;DHT22;1924;48.078;11.516;2022-10-16T17:54:08;16.80;99.90
3818;DHT22;1924;48.078;11.516;2022-10-16T17:56:35;16.80;99.90
3818;DHT22;1924;48.078;11.516;2022-10-16T17:59:04;16.70;99.90
3818;DHT22;1924;48.078;11.516;2022-10-16T18:01:33;16.70;99.90
3818;DHT22;1924;48.078;11.516;2022-10-16T18:04:03;16.70;99.90
3818;DHT22;1924;48.078;11.516;2022-10-16T18:06:31;16.60;99.90
3818;DHT22;1924;48.078;11.516;2022-10-16T18:08:59;16.60;99.90
3818;DHT22;1924;48.078;11.516;2022-10-16T18:11:27;16.60;99.90
3818;DHT22;1924;48.078;11.516;2022-10-16T18:13:56;16.50;99.90
3818;DHT22;1924;48.078;11.516;2022-10-16T18:16:25;16.50;99.90
3818;DHT22;1924;48.078;11.516;2022-10-16T18:18:53;16.50;99.90
3818;DHT22;1924;48.078;11.516;2022-10-16T18:21:21;16.40;99.90
3818;DHT22;1924;48.078;11.516;2022-10-16T18:23:48;16.50;99.90
3818;DHT22;1924;48.078;11.516;2022-10-16T18:26:16;16.40;99.90
3818;DHT22;1924;48.078;11.516;2022-10-16T18:28:42;16.30;99.90
3818;DHT22;1924;48.078;11.516;2022-10-16T18:31:12;16.30;99.90
3818;DHT22;1924;48.078;11.516;2022-10-16T18:33:41;16.30;99.90
3818;DHT22;1924;48.078;11.516;2022-10-16T18:36:13;16.20;99.90
3818;DHT22;1924;48.078;11.516;2022-10-16T18:38:41;16.20;99.90
3818;DHT22;1924;48.078;11.516;2022-10-16T18:41:08;16.10;99.90
3818;DHT22;1924;48.078;11.516;2022-10-16T18:43:36;16.10;99.90
3818;DHT22;1924;48.078;11.516;2022-10-16T18:46:05;16.10;99.90
3818;DHT22;1924;48.078;11.516;2022-10-16T18:48:33;16.00;99.90
3818;DHT22;1924;48.078;11.516;2022-10-16T18:51:08;16.10;99.90